Time;durP1;ratioP1;P1;durP2;ratioP2;P2;SDS_P1;SDS_P2;PMS_P1;PMS_P2;Temp;Humidity;BMP_temperature;BMP_pressure;BME280_temperature;BME280_humidity;BME280_pressure;Samples;Min_cycle;Max_cycle;Signal;HPM_P1;HPM_P2
2022/03/24 00:01:19;;;;;;;;;57.75;47.50;;;;;;;;5073361;28;45528;-68
2022/03/24 00:03:46;;;;;;;;;53.25;44.00;;;;;;;;5070995;28;45478;-68
2022/03/24 00:06:11;;;;;;;;;54.25;45.25;;;;;;;;5072155;27;45822;-69
2022/03/24 00:08:37;;;;;;;;;52.75;42.00;;;;;;;;5073193;27;45459;-69
2022/03/24 00:11:02;;;;;;;;;58.00;47.25;;;;;;;;5071679;28;47640;-68
2022/03/24 00:13:27;;;;;;;;;57.25;46.00;;;;;;;;5073440;28;45524;-69
2022/03/24 00:15:52;;;;;;;;;52.75;44.00;;;;;;;;5073827;28;45582;-69
2022/03/24 00:18:17;;;;;;;;;52.75;42.50;;;;;;;;5073754;28;45515;-69
2022/03/24 00:20:43;;;;;;;;;52.50;42.75;;;;;;;;5065674;28;47592;-68
2022/03/24 00:23:09;;;;;;;;;55.00;43.25;;;;;;;;5072702;28;45467;-69
2022/03/24 00:25:34;;;;;;;;;53.75;43.50;;;;;;;;5055165;28;45388;-69
2022/03/24 00:28:00;;;;;;;;;53.50;42.50;;;;;;;;5073128;28;45402;-69
2022/03/24 00:30:25;;;;;;;;;51.50;42.00;;;;;;;;5065869;28;46455;-69
2022/03/24 00:32:50;;;;;;;;;54.50;44.25;;;;;;;;5073577;28;45638;-69
2022/03/24 00:35:16;;;;;;;;;55.50;46.25;;;;;;;;5072734;28;45528;-69
2022/03/24 00:37:41;;;;;;;;;54.00;43.75;;;;;;;;5073257;27;45424;-69
2022/03/24 00:40:07;;;;;;;;;53.25;44.25;;;;;;;;5073220;28;47591;-69
2022/03/24 00:42:34;;;;;;;;;57.50;43.25;;;;;;;;5072674;28;46133;-68
2022/03/24 00:45:00;;;;;;;;;56.25;46.75;;;;;;;;5073360;28;45954;-68
2022/03/24 00:47:25;;;;;;;;;53.75;45.50;;;;;;;;5074196;27;45483;-68
2022/03/24 00:49:51;;;;;;;;;50.50;42.00;;;;;;;;5071083;28;48055;-68
2022/03/24 00:52:16;;;;;;;;;54.75;43.00;;;;;;;;5073339;27;45605;-68
2022/03/24 00:54:41;;;;;;;;;52.50;44.50;;;;;;;;5072896;28;45950;-68
2022/03/24 00:57:07;;;;;;;;;56.25;44.75;;;;;;;;5072816;28;45494;-67
2022/03/24 00:59:32;;;;;;;;;54.25;44.75;;;;;;;;5073073;28;45439;-67
2022/03/24 01:01:59;;;;;;;;;54.00;44.75;;;;;;;;5068060;28;46019;-66
2022/03/24 01:04:24;;;;;;;;;59.25;48.25;;;;;;;;5073809;27;45351;-67
2022/03/24 01:06:49;;;;;;;;;51.50;43.50;;;;;;;;5074546;27;45369;-69
2022/03/24 01:09:14;;;;;;;;;51.00;43.00;;;;;;;;5073546;28;45402;-67
2022/03/24 01:11:40;;;;;;;;;51.75;40.75;;;;;;;;5072145;28;45536;-69
2022/03/24 01:14:07;;;;;;;;;28.75;25.25;;;;;;;;5070767;28;45679;-69
2022/03/24 01:16:33;;;;;;;;;58.00;46.75;;;;;;;;5062535;28;45592;-69
2022/03/24 01:18:58;;;;;;;;;54.25;44.50;;;;;;;;5074066;27;46469;-68
2022/03/24 01:21:23;;;;;;;;;54.50;43.75;;;;;;;;5065914;28;45456;-69
2022/03/24 01:23:49;;;;;;;;;54.50;45.25;;;;;;;;5072252;27;45782;-69
2022/03/24 01:26:15;;;;;;;;;53.75;44.25;;;;;;;;5073636;28;45457;-69
2022/03/24 01:28:41;;;;;;;;;52.25;44.00;;;;;;;;5073339;28;45931;-68
2022/03/24 01:31:08;;;;;;;;;55.25;44.50;;;;;;;;5071841;28;45429;-68
2022/03/24 01:33:34;;;;;;;;;56.50;45.00;;;;;;;;5070278;28;45435;-68
2022/03/24 01:35:59;;;;;;;;;54.00;44.75;;;;;;;;5073964;27;45360;-70
2022/03/24 01:38:24;;;;;;;;;54.25;44.75;;;;;;;;5076680;27;46252;-69
2022/03/24 01:40:50;;;;;;;;;56.25;46.00;;;;;;;;5076360;28;45467;-68
2022/03/24 01:43:17;;;;;;;;;58.25;46.25;;;;;;;;5077216;27;45448;-68
2022/03/24 01:45:43;;;;;;;;;55.00;44.25;;;;;;;;5077341;27;45475;-69
2022/03/24 01:48:08;;;;;;;;;53.75;45.50;;;;;;;;5069345;28;47884;-69
2022/03/24 01:50:34;;;;;;;;;52.75;43.25;;;;;;;;5066074;28;46520;-69
2022/03/24 01:52:59;;;;;;;;;57.75;44.75;;;;;;;;5075057;27;45374;-68
2022/03/24 01:55:24;;;;;;;;;52.25;44.75;;;;;;;;5074233;28;45424;-68
2022/03/24 01:57:50;;;;;;;;;51.25;41.25;;;;;;;;5075005;28;47739;-69
2022/03/24 02:00:15;;;;;;;;;48.75;42.00;;;;;;;;5075169;28;45340;-69
2022/03/24 02:02:44;;;;;;;;;54.00;43.25;;;;;;;;5076756;27;45490;-69
2022/03/24 02:05:10;;;;;;;;;54.75;43.00;;;;;;;;5074930;28;45696;-67
2022/03/24 02:07:35;;;;;;;;;53.50;43.00;;;;;;;;5058844;28;46452;-67
2022/03/24 02:10:01;;;;;;;;;52.75;44.25;;;;;;;;5076740;27;45543;-68
2022/03/24 02:12:27;;;;;;;;;62.50;46.00;;;;;;;;5069299;28;45448;-68
2022/03/24 02:14:57;;;;;;;;;53.25;42.00;;;;;;;;5076397;27;45492;-68
2022/03/24 02:17:28;;;;;;;;;54.75;45.00;;;;;;;;5075252;28;46610;-69
2022/03/24 02:19:54;;;;;;;;;55.25;45.00;;;;;;;;5073486;28;46189;-67
2022/03/24 02:22:19;;;;;;;;;52.25;44.50;;;;;;;;5076390;27;45382;-68
2022/03/24 02:24:45;;;;;;;;;52.50;43.50;;;;;;;;5076684;28;45383;-69
2022/03/24 02:27:11;;;;;;;;;56.25;45.50;;;;;;;;5076010;27;45722;-66
2022/03/24 02:29:37;;;;;;;;;54.50;44.25;;;;;;;;5076037;27;45419;-68
2022/03/24 02:32:07;;;;;;;;;55.50;43.75;;;;;;;;5076417;27;45250;-68
2022/03/24 02:34:47;;;;;;;;;59.50;46.50;;;;;;;;5076153;27;45408;-68
2022/03/24 02:37:19;;;;;;;;;56.50;45.50;;;;;;;;5073448;28;45821;-68
2022/03/24 02:39:45;;;;;;;;;49.00;41.00;;;;;;;;5076282;28;45506;-68
2022/03/24 02:42:15;;;;;;;;;54.25;44.50;;;;;;;;5074819;28;45566;-68
2022/03/24 02:44:41;;;;;;;;;53.75;43.75;;;;;;;;5074936;28;45442;-68
2022/03/24 02:47:08;;;;;;;;;52.75;43.25;;;;;;;;5073229;28;48104;-69
2022/03/24 02:49:34;;;;;;;;;52.50;42.00;;;;;;;;5073987;27;45516;-67
2022/03/24 02:52:00;;;;;;;;;55.25;44.50;;;;;;;;5076604;28;45385;-67
2022/03/24 02:54:26;;;;;;;;;55.75;46.50;;;;;;;;5075794;28;45428;-67
2022/03/24 02:56:52;;;;;;;;;55.00;41.75;;;;;;;;5075540;27;45515;-68
2022/03/24 02:59:17;;;;;;;;;54.25;44.75;;;;;;;;5067983;28;45400;-68
2022/03/24 03:01:47;;;;;;;;;54.75;45.75;;;;;;;;5074187;27;45592;-68
2022/03/24 03:04:13;;;;;;;;;55.00;44.00;;;;;;;;5076669;27;45505;-68
2022/03/24 03:06:38;;;;;;;;;55.75;46.25;;;;;;;;5073950;28;48387;-68
2022/03/24 03:09:04;;;;;;;;;54.75;46.00;;;;;;;;5074348;27;45482;-68
2022/03/24 03:11:33;;;;;;;;;55.00;43.25;;;;;;;;5073690;27;45548;-68
2022/03/24 03:13:58;;;;;;;;;51.00;41.00;;;;;;;;5075641;27;45642;-68
2022/03/24 03:16:24;;;;;;;;;53.25;43.25;;;;;;;;5075253;27;45515;-69
2022/03/24 03:18:50;;;;;;;;;56.00;46.50;;;;;;;;5074297;28;45432;-68
2022/03/24 03:21:16;;;;;;;;;53.75;44.25;;;;;;;;5074049;28;45374;-68
2022/03/24 03:23:43;;;;;;;;;55.75;43.50;;;;;;;;5075430;28;45412;-68
2022/03/24 03:26:09;;;;;;;;;51.00;43.00;;;;;;;;5075436;27;46827;-67
2022/03/24 03:28:34;;;;;;;;;52.50;42.00;;;;;;;;5075017;27;45381;-67
2022/03/24 03:31:00;;;;;;;;;56.50;47.00;;;;;;;;5075895;28;45359;-69
2022/03/24 03:33:25;;;;;;;;;51.50;42.25;;;;;;;;5073121;28;45529;-67
2022/03/24 03:35:51;;;;;;;;;52.75;44.25;;;;;;;;5074843;28;46611;-68
2022/03/24 03:38:18;;;;;;;;;56.75;46.00;;;;;;;;5074876;27;45482;-67
2022/03/24 03:40:43;;;;;;;;;53.50;44.25;;;;;;;;5075300;28;45555;-68
2022/03/24 03:43:09;;;;;;;;;57.75;48.25;;;;;;;;5075422;27;45417;-67
2022/03/24 03:45:35;;;;;;;;;56.50;47.75;;;;;;;;5072912;28;47647;-68
2022/03/24 03:48:00;;;;;;;;;52.00;44.50;;;;;;;;5073618;28;45488;-68
2022/03/24 03:50:25;;;;;;;;;56.25;47.00;;;;;;;;5074824;28;45338;-69
2022/03/24 03:52:51;;;;;;;;;50.25;42.25;;;;;;;;5074870;27;45475;-67
2022/03/24 03:55:17;;;;;;;;;38.00;32.50;;;;;;;;5074345;27;45909;-68
2022/03/24 03:57:42;;;;;;;;;45.50;40.25;;;;;;;;5073815;28;45432;-68
2022/03/24 04:02:51;;;;;;;;;49.25;41.25;;;;;;;;5074481;28;45614;-67
2022/03/24 04:05:23;;;;;;;;;57.75;45.75;;;;;;;;5072340;28;48342;-67
2022/03/24 04:07:48;;;;;;;;;62.00;45.50;;;;;;;;5072152;28;45516;-68
2022/03/24 04:10:14;;;;;;;;;53.00;43.25;;;;;;;;5074408;28;45472;-67
2022/03/24 04:12:39;;;;;;;;;59.00;46.25;;;;;;;;5073775;28;45555;-67
2022/03/24 04:15:04;;;;;;;;;54.00;43.25;;;;;;;;5071808;28;48541;-67
2022/03/24 04:17:30;;;;;;;;;58.50;46.75;;;;;;;;5074166;28;45486;-67
2022/03/24 04:19:55;;;;;;;;;52.50;43.25;;;;;;;;5074169;28;45542;-67
2022/03/24 04:22:20;;;;;;;;;52.25;43.50;;;;;;;;5074394;27;45436;-68
2022/03/24 04:24:45;;;;;;;;;57.50;45.25;;;;;;;;5074490;28;45542;-67
2022/03/24 04:27:11;;;;;;;;;58.75;47.75;;;;;;;;5074218;28;45509;-68
2022/03/24 04:29:37;;;;;;;;;52.50;43.25;;;;;;;;5074324;27;46027;-69
2022/03/24 04:32:02;;;;;;;;;53.50;45.00;;;;;;;;5072790;28;45515;-68
2022/03/24 04:34:27;;;;;;;;;51.25;41.50;;;;;;;;5074222;28;45300;-68
2022/03/24 04:36:52;;;;;;;;;57.25;48.00;;;;;;;;5074894;28;45554;-68
2022/03/24 04:39:18;;;;;;;;;52.50;43.75;;;;;;;;5072445;28;45432;-66
2022/03/24 04:41:43;;;;;;;;;51.25;44.75;;;;;;;;5071718;28;45383;-67
2022/03/24 04:44:08;;;;;;;;;56.75;45.75;;;;;;;;5073343;27;46549;-67
2022/03/24 04:46:34;;;;;;;;;50.50;41.50;;;;;;;;5072737;28;46167;-67
2022/03/24 04:48:59;;;;;;;;;53.50;44.75;;;;;;;;5074662;28;45431;-68
2022/03/24 04:51:24;;;;;;;;;56.75;45.75;;;;;;;;5066278;28;45577;-68
2022/03/24 04:53:49;;;;;;;;;49.50;41.75;;;;;;;;5065241;28;48411;-68
2022/03/24 04:56:16;;;;;;;;;58.25;48.75;;;;;;;;5073495;28;45571;-68
2022/03/24 04:58:42;;;;;;;;;55.75;44.25;;;;;;;;5073820;27;45649;-68
2022/03/24 05:01:07;;;;;;;;;55.50;45.00;;;;;;;;5072987;28;45424;-68
2022/03/24 05:03:32;;;;;;;;;52.25;43.75;;;;;;;;5073962;28;46506;-68
2022/03/24 05:05:57;;;;;;;;;55.75;45.50;;;;;;;;5071218;28;45438;-68
2022/03/24 05:08:23;;;;;;;;;56.00;45.75;;;;;;;;5073420;28;45371;-69
2022/03/24 05:10:48;;;;;;;;;58.50;44.25;;;;;;;;5073795;27;45343;-69
2022/03/24 05:13:13;;;;;;;;;58.25;47.50;;;;;;;;5077408;27;46610;-68
2022/03/24 05:15:39;;;;;;;;;56.25;46.00;;;;;;;;5077115;28;45409;-67
2022/03/24 05:18:04;;;;;;;;;53.50;45.50;;;;;;;;5069993;28;45480;-68
2022/03/24 05:20:30;;;;;;;;;58.00;48.00;;;;;;;;5076121;28;45325;-68
2022/03/24 05:22:55;;;;;;;;;56.00;47.00;;;;;;;;5073282;28;47720;-67
2022/03/24 05:25:20;;;;;;;;;59.00;49.25;;;;;;;;5068730;28;45386;-67
2022/03/24 05:27:45;;;;;;;;;60.00;46.25;;;;;;;;5076443;28;45499;-69
2022/03/24 05:30:11;;;;;;;;;56.00;47.00;;;;;;;;5092723;27;45535;-67
2022/03/24 05:32:39;;;;;;;;;57.50;47.25;;;;;;;;5076897;27;45497;-67
2022/03/24 05:35:04;;;;;;;;;60.00;49.00;;;;;;;;5077044;27;47142;-68
2022/03/24 05:37:30;;;;;;;;;56.75;44.75;;;;;;;;5076913;27;45542;-67
2022/03/24 05:39:55;;;;;;;;;58.75;48.50;;;;;;;;5077836;27;45467;-68
2022/03/24 05:42:20;;;;;;;;;60.00;49.00;;;;;;;;5069419;28;48634;-69
2022/03/24 05:44:46;;;;;;;;;60.25;49.50;;;;;;;;5075451;28;45407;-67
2022/03/24 05:47:11;;;;;;;;;56.25;47.50;;;;;;;;5074828;28;45731;-68
2022/03/24 05:49:36;;;;;;;;;57.75;48.75;;;;;;;;5075146;28;45255;-68
2022/03/24 05:52:02;;;;;;;;;59.00;48.75;;;;;;;;5077104;28;46700;-69
2022/03/24 05:54:28;;;;;;;;;61.50;49.50;;;;;;;;5068990;28;45740;-67
2022/03/24 05:56:53;;;;;;;;;55.75;47.00;;;;;;;;5069401;28;45556;-68
2022/03/24 05:59:19;;;;;;;;;57.25;48.50;;;;;;;;5076760;28;45431;-67
2022/03/24 06:01:45;;;;;;;;;56.50;46.75;;;;;;;;5076369;27;46419;-67
2022/03/24 06:04:13;;;;;;;;;60.50;50.50;;;;;;;;5076737;28;45393;-68
2022/03/24 06:06:39;;;;;;;;;60.25;49.00;;;;;;;;5076896;28;45399;-69
2022/03/24 06:09:05;;;;;;;;;57.00;46.75;;;;;;;;5075516;27;46508;-69
2022/03/24 06:11:31;;;;;;;;;59.00;50.25;;;;;;;;5074581;28;48845;-68
2022/03/24 06:13:56;;;;;;;;;63.75;52.75;;;;;;;;5073670;28;45647;-68
2022/03/24 06:16:22;;;;;;;;;62.00;49.00;;;;;;;;5075067;27;45348;-69
2022/03/24 06:18:47;;;;;;;;;59.50;50.00;;;;;;;;5075418;28;45322;-68
2022/03/24 06:21:14;;;;;;;;;58.00;47.25;;;;;;;;5074187;28;47511;-68
2022/03/24 06:23:39;;;;;;;;;56.50;47.75;;;;;;;;5074891;27;45637;-68
2022/03/24 06:26:05;;;;;;;;;58.50;47.25;;;;;;;;5074860;28;45559;-69
2022/03/24 06:28:30;;;;;;;;;59.75;49.25;;;;;;;;5073117;28;45438;-67
2022/03/24 06:30:55;;;;;;;;;53.25;45.00;;;;;;;;5075968;28;46006;-68
2022/03/24 06:33:20;;;;;;;;;63.50;49.75;;;;;;;;5072593;28;46450;-68
2022/03/24 06:35:46;;;;;;;;;61.75;51.00;;;;;;;;5075887;27;45449;-69
2022/03/24 06:38:12;;;;;;;;;61.25;51.00;;;;;;;;5074155;28;45724;-69
2022/03/24 06:40:39;;;;;;;;;55.00;45.25;;;;;;;;5073047;28;47629;-68
2022/03/24 06:43:06;;;;;;;;;63.50;49.75;;;;;;;;5069183;28;45452;-66
2022/03/24 06:45:32;;;;;;;;;61.25;49.75;;;;;;;;5072030;28;45415;-68
2022/03/24 06:47:57;;;;;;;;;61.75;51.00;;;;;;;;5075233;27;45517;-69
2022/03/24 06:50:22;;;;;;;;;58.50;48.25;;;;;;;;5073400;28;46471;-68
2022/03/24 06:52:48;;;;;;;;;58.75;48.00;;;;;;;;5074135;28;45485;-68
2022/03/24 06:55:13;;;;;;;;;62.50;48.75;;;;;;;;5079853;27;45412;-68
2022/03/24 06:57:39;;;;;;;;;63.00;50.50;;;;;;;;5069800;28;45605;-66
2022/03/24 07:00:04;;;;;;;;;60.50;50.25;;;;;;;;5069623;28;47569;-68
2022/03/24 07:02:29;;;;;;;;;63.50;50.50;;;;;;;;5074247;28;45399;-69
2022/03/24 07:04:55;;;;;;;;;60.00;46.75;;;;;;;;5072992;28;45692;-69
2022/03/24 07:07:20;;;;;;;;;58.50;47.25;;;;;;;;5072149;28;45552;-69
2022/03/24 07:09:45;;;;;;;;;59.50;48.75;;;;;;;;5073142;28;46443;-69
2022/03/24 07:12:11;;;;;;;;;65.50;51.25;;;;;;;;5070672;28;45929;-68
2022/03/24 07:14:36;;;;;;;;;55.25;47.25;;;;;;;;5068471;28;45955;-66
2022/03/24 07:17:01;;;;;;;;;55.50;43.50;;;;;;;;5069003;28;45222;-67
2022/03/24 07:19:26;;;;;;;;;53.75;44.75;;;;;;;;5070048;28;45972;-68
2022/03/24 07:21:52;;;;;;;;;45.25;39.75;;;;;;;;5074600;28;45410;-68
2022/03/24 07:24:17;;;;;;;;;53.75;44.00;;;;;;;;5075428;28;45341;-68
2022/03/24 07:26:42;;;;;;;;;53.25;42.75;;;;;;;;5074904;28;45436;-67
2022/03/24 07:29:10;;;;;;;;;51.00;40.00;;;;;;;;5067434;28;46582;-67
2022/03/24 07:31:36;;;;;;;;;54.25;42.50;;;;;;;;5074542;28;45388;-67
2022/03/24 07:34:02;;;;;;;;;49.50;41.25;;;;;;;;5074794;27;45656;-68
2022/03/24 07:36:27;;;;;;;;;53.00;43.75;;;;;;;;5074980;28;45399;-68
2022/03/24 07:38:53;;;;;;;;;49.75;40.25;;;;;;;;5073972;28;45571;-68
2022/03/24 07:41:19;;;;;;;;;51.75;42.50;;;;;;;;5073590;27;45404;-67
2022/03/24 07:43:44;;;;;;;;;51.75;39.75;;;;;;;;5073882;27;45656;-68
2022/03/24 07:46:10;;;;;;;;;47.75;41.25;;;;;;;;5073932;28;45390;-67
2022/03/24 07:48:35;;;;;;;;;51.50;42.75;;;;;;;;5075357;27;45668;-68
2022/03/24 07:51:00;;;;;;;;;46.00;36.50;;;;;;;;5074793;28;45555;-68
2022/03/24 07:53:36;;;;;;;;;45.25;39.75;;;;;;;;5074718;27;45597;-68
2022/03/24 07:56:02;;;;;;;;;52.75;40.50;;;;;;;;5074927;28;45542;-68
2022/03/24 07:58:27;;;;;;;;;46.50;39.00;;;;;;;;5074600;28;46471;-68
2022/03/24 08:00:53;;;;;;;;;49.75;41.50;;;;;;;;5075406;28;45546;-68
2022/03/24 08:03:19;;;;;;;;;53.75;43.25;;;;;;;;5065523;28;45989;-69
2022/03/24 08:05:45;;;;;;;;;53.00;43.00;;;;;;;;5072135;27;45399;-69
2022/03/24 08:08:10;;;;;;;;;54.00;43.25;;;;;;;;5073931;27;46190;-70
2022/03/24 08:10:42;;;;;;;;;51.50;41.75;;;;;;;;5074497;28;45495;-69
2022/03/24 08:13:08;;;;;;;;;55.25;46.75;;;;;;;;5071435;28;45415;-69
2022/03/24 08:15:34;;;;;;;;;51.00;41.50;;;;;;;;5074669;28;45605;-69
2022/03/24 08:17:59;;;;;;;;;47.25;38.75;;;;;;;;5066849;28;47622;-69
2022/03/24 08:20:25;;;;;;;;;52.50;43.00;;;;;;;;5067245;28;45625;-68
2022/03/24 08:22:52;;;;;;;;;54.00;43.75;;;;;;;;5072999;28;45606;-69
2022/03/24 08:25:18;;;;;;;;;51.50;38.75;;;;;;;;5074608;27;45462;-69
2022/03/24 08:27:43;;;;;;;;;52.00;44.50;;;;;;;;5074719;27;46261;-68
2022/03/24 08:30:08;;;;;;;;;54.50;43.25;;;;;;;;5072928;28;45498;-69
2022/03/24 08:32:34;;;;;;;;;58.50;46.00;;;;;;;;5074170;28;45392;-69
2022/03/24 08:35:00;;;;;;;;;51.50;43.25;;;;;;;;5067556;28;45331;-70
2022/03/24 08:37:25;;;;;;;;;50.50;43.25;;;;;;;;5072828;28;45361;-70
2022/03/24 08:39:50;;;;;;;;;49.00;40.25;;;;;;;;5074919;27;45505;-70
2022/03/24 08:42:15;;;;;;;;;54.25;44.50;;;;;;;;5074279;27;45336;-69
2022/03/24 08:44:41;;;;;;;;;52.25;44.00;;;;;;;;5072913;28;45499;-70
2022/03/24 08:47:06;;;;;;;;;54.50;41.50;;;;;;;;5071659;28;47642;-70
2022/03/24 08:49:32;;;;;;;;;45.25;39.50;;;;;;;;5072853;28;45955;-70
2022/03/24 08:51:57;;;;;;;;;48.25;39.75;;;;;;;;5074879;27;45335;-70
2022/03/24 08:54:22;;;;;;;;;53.75;42.50;;;;;;;;5073849;27;45420;-70
2022/03/24 08:56:47;;;;;;;;;50.75;41.25;;;;;;;;5073639;27;46019;-69
2022/03/24 08:59:13;;;;;;;;;47.25;39.75;;;;;;;;5073762;28;45466;-69
2022/03/24 09:01:38;;;;;;;;;53.25;43.00;;;;;;;;5074266;28;45421;-69
2022/03/24 09:04:04;;;;;;;;;54.00;43.00;;;;;;;;5074629;28;45422;-69
2022/03/24 09:06:29;;;;;;;;;50.00;42.25;;;;;;;;5073616;28;46381;-69
2022/03/24 09:08:54;;;;;;;;;48.25;37.75;;;;;;;;5072621;28;45594;-71
2022/03/24 09:11:19;;;;;;;;;47.75;38.50;;;;;;;;5073201;28;45427;-70
2022/03/24 09:13:44;;;;;;;;;49.25;39.25;;;;;;;;5072625;28;45332;-70
2022/03/24 09:16:11;;;;;;;;;52.00;41.25;;;;;;;;5073942;27;45537;-71
2022/03/24 09:18:36;;;;;;;;;48.25;41.00;;;;;;;;5073669;28;45420;-70
2022/03/24 09:21:01;;;;;;;;;45.00;38.75;;;;;;;;5073403;28;45558;-71
2022/03/24 09:23:28;;;;;;;;;48.50;39.00;;;;;;;;5072071;28;45459;-71
2022/03/24 09:25:54;;;;;;;;;39.75;35.50;;;;;;;;5073454;28;45730;-71
2022/03/24 09:28:20;;;;;;;;;47.75;38.50;;;;;;;;5073736;27;45360;-71
2022/03/24 09:30:45;;;;;;;;;45.25;39.25;;;;;;;;5072918;28;45306;-71
2022/03/24 09:33:11;;;;;;;;;49.25;40.75;;;;;;;;5072844;27;45431;-71
2022/03/24 09:35:36;;;;;;;;;44.00;37.00;;;;;;;;5070365;28;48400;-72
2022/03/24 09:38:02;;;;;;;;;24.75;22.75;;;;;;;;5073294;27;45506;-71
2022/03/24 09:40:27;;;;;;;;;40.50;36.00;;;;;;;;5073533;27;45407;-71
2022/03/24 09:42:52;;;;;;;;;44.00;37.25;;;;;;;;5072155;28;45595;-71
2022/03/24 09:45:19;;;;;;;;;45.50;38.00;;;;;;;;5071936;28;47468;-70
2022/03/24 09:47:44;;;;;;;;;41.75;35.75;;;;;;;;5071565;28;46053;-69
2022/03/24 09:50:11;;;;;;;;;42.00;35.50;;;;;;;;5065665;28;45708;-69
2022/03/24 09:52:37;;;;;;;;;48.25;38.00;;;;;;;;5072190;28;45504;-70
2022/03/24 09:55:03;;;;;;;;;44.75;37.50;;;;;;;;5072377;28;47641;-70
2022/03/24 09:57:28;;;;;;;;;42.50;33.75;;;;;;;;5073990;27;45417;-70
2022/03/24 09:59:53;;;;;;;;;45.50;38.00;;;;;;;;5076536;27;45508;-70
2022/03/24 10:02:19;;;;;;;;;42.50;37.25;;;;;;;;5076725;28;45399;-69
2022/03/24 10:04:51;;;;;;;;;45.75;37.25;;;;;;;;5075956;27;45678;-70
2022/03/24 10:07:20;;;;;;;;;49.00;39.50;;;;;;;;5076530;27;46118;-70
2022/03/24 10:09:47;;;;;;;;;46.75;40.50;;;;;;;;5075705;28;45352;-70
2022/03/24 10:12:18;;;;;;;;;46.75;39.00;;;;;;;;5076477;27;45562;-70
2022/03/24 10:14:44;;;;;;;;;45.75;36.75;;;;;;;;5076530;27;45692;-70
2022/03/24 10:17:10;;;;;;;;;38.50;33.50;;;;;;;;5075100;28;45422;-70
2022/03/24 10:19:36;;;;;;;;;37.75;33.00;;;;;;;;5076591;27;45294;-69
2022/03/24 10:22:08;;;;;;;;;45.00;37.25;;;;;;;;5077208;27;45288;-71
2022/03/24 10:24:41;;;;;;;;;45.00;39.00;;;;;;;;5075480;28;45765;-70
2022/03/24 10:27:06;;;;;;;;;44.50;38.00;;;;;;;;5075765;27;45402;-70
2022/03/24 10:29:32;;;;;;;;;42.00;32.25;;;;;;;;5076413;28;45612;-70
2022/03/24 10:31:58;;;;;;;;;39.25;34.00;;;;;;;;5069719;28;45436;-71
2022/03/24 10:34:37;;;;;;;;;41.00;35.00;;;;;;;;5074726;28;46207;-72
2022/03/24 10:37:07;;;;;;;;;44.50;37.25;;;;;;;;5076749;28;45438;-71
2022/03/24 10:39:33;;;;;;;;;48.25;38.25;;;;;;;;5076288;27;45451;-71
2022/03/24 10:42:12;;;;;;;;;47.00;39.75;;;;;;;;5074719;28;45617;-71
2022/03/24 10:44:57;;;;;;;;;40.75;36.25;;;;;;;;5075758;27;46248;-71
2022/03/24 10:47:56;;;;;;;;;46.25;39.00;;;;;;;;5075830;28;45669;-70
2022/03/24 10:50:33;;;;;;;;;51.50;42.25;;;;;;;;5013233;28;45471;-69
2022/03/24 10:53:00;;;;;;;;;43.75;37.00;;;;;;;;5013344;28;45428;-69
2022/03/24 10:55:31;;;;;;;;;43.75;35.75;;;;;;;;5013276;28;47569;-69
2022/03/24 10:57:58;;;;;;;;;47.25;39.50;;;;;;;;5011874;28;45481;-71
2022/03/24 11:00:23;;;;;;;;;46.25;38.00;;;;;;;;4994092;28;45485;-69
2022/03/24 11:02:48;;;;;;;;;45.75;36.75;;;;;;;;5011653;28;45489;-71
2022/03/24 11:05:14;;;;;;;;;43.00;36.25;;;;;;;;5011691;28;49284;-70
2022/03/24 11:07:39;;;;;;;;;26.25;24.25;;;;;;;;5011610;28;45796;-70
2022/03/24 11:10:14;;;;;;;;;46.50;37.75;;;;;;;;5012545;28;45510;-69
2022/03/24 11:12:40;;;;;;;;;45.50;37.25;;;;;;;;5013444;28;45490;-70
2022/03/24 11:15:07;;;;;;;;;45.25;37.75;;;;;;;;5011385;28;46867;-70
2022/03/24 11:17:33;;;;;;;;;39.75;33.50;;;;;;;;5011594;28;46214;-69
2022/03/24 11:20:05;;;;;;;;;48.50;39.25;;;;;;;;5011196;28;45793;-71
2022/03/24 11:22:48;;;;;;;;;42.00;36.00;;;;;;;;5011052;28;45586;-70
2022/03/24 11:25:13;;;;;;;;;50.25;37.50;;;;;;;;5025143;28;45440;-71
2022/03/24 11:27:39;;;;;;;;;46.25;36.50;;;;;;;;5074209;28;45462;-71
2022/03/24 11:30:05;;;;;;;;;38.75;35.50;;;;;;;;5075144;27;45377;-70
2022/03/24 11:32:33;;;;;;;;;44.00;35.50;;;;;;;;5067844;28;45416;-71
2022/03/24 11:34:58;;;;;;;;;41.00;36.50;;;;;;;;5075027;27;46078;-71
2022/03/24 11:37:24;;;;;;;;;41.25;34.75;;;;;;;;5075013;28;45387;-69
2022/03/24 11:40:09;;;;;;;;;44.00;37.25;;;;;;;;5073708;28;45794;-71
2022/03/24 11:42:43;;;;;;;;;37.25;33.25;;;;;;;;5075433;27;45556;-70
2022/03/24 11:45:13;;;;;;;;;35.75;32.75;;;;;;;;5074656;27;46438;-70
2022/03/24 11:48:11;;;;;;;;;42.75;36.25;;;;;;;;5074706;27;45361;-70
2022/03/24 11:50:55;;;;;;;;;33.00;31.50;;;;;;;;5012298;28;45517;-71
2022/03/24 11:53:27;;;;;;;;;40.25;34.00;;;;;;;;5012467;28;45536;-71
2022/03/24 11:56:10;;;;;;;;;37.75;33.00;;;;;;;;5012149;28;45785;-70
2022/03/24 11:58:36;;;;;;;;;37.75;32.50;;;;;;;;4994214;28;45613;-70
2022/03/24 12:01:25;;;;;;;;;34.25;32.25;;;;;;;;4996090;28;45472;-70
2022/03/24 12:03:56;;;;;;;;;39.25;33.00;;;;;;;;5002146;28;45422;-70
2022/03/24 12:06:40;;;;;;;;;36.25;27.00;;;;;;;;5010608;28;45643;-69
2022/03/24 12:09:06;;;;;;;;;45.00;34.75;;;;;;;;5010626;28;46727;-70
2022/03/24 12:11:31;;;;;;;;;29.75;29.75;;;;;;;;5010834;28;45646;-71
2022/03/24 12:14:17;;;;;;;;;29.75;28.00;;;;;;;;4994108;28;45767;-70
2022/03/24 12:16:44;;;;;;;;;27.50;23.50;;;;;;;;5011654;28;46895;-71
2022/03/24 12:19:28;;;;;;;;;28.25;25.75;;;;;;;;4995581;28;45520;-71
2022/03/24 12:21:55;;;;;;;;;26.50;25.75;;;;;;;;5011695;28;45437;-71
2022/03/24 12:24:21;;;;;;;;;29.25;23.25;;;;;;;;4993768;28;45555;-70
2022/03/24 12:26:56;;;;;;;;;35.50;30.25;;;;;;;;5057464;28;45526;-71
2022/03/24 12:29:25;;;;;;;;;34.00;29.50;;;;;;;;5074373;27;45409;-72
2022/03/24 12:32:06;;;;;;;;;37.75;31.25;;;;;;;;5074234;27;45427;-71
2022/03/24 12:34:37;;;;;;;;;31.50;28.75;;;;;;;;5073108;28;45570;-71
2022/03/24 12:37:03;;;;;;;;;24.50;21.75;;;;;;;;5074471;28;46148;-71
2022/03/24 12:39:29;;;;;;;;;26.75;26.25;;;;;;;;5074052;27;45560;-72
2022/03/24 12:42:13;;;;;;;;;38.50;33.25;;;;;;;;5074154;27;45340;-71
2022/03/24 12:44:55;;;;;;;;;26.00;23.00;;;;;;;;5074063;27;45561;-71
2022/03/24 12:47:33;;;;;;;;;30.00;29.00;;;;;;;;5072682;28;48613;-71
2022/03/24 12:49:59;;;;;;;;;33.25;32.25;;;;;;;;5069959;28;45591;-71
2022/03/24 12:52:43;;;;;;;;;32.50;31.00;;;;;;;;5072161;28;45543;-72
2022/03/24 12:55:19;;;;;;;;;28.75;27.75;;;;;;;;5072764;28;45518;-72
2022/03/24 12:57:53;;;;;;;;;29.75;29.75;;;;;;;;5071885;28;47474;-70
2022/03/24 13:00:18;;;;;;;;;31.25;27.00;;;;;;;;5073660;27;45414;-71
2022/03/24 13:02:43;;;;;;;;;34.75;30.25;;;;;;;;5072652;28;45589;-71
2022/03/24 13:05:11;;;;;;;;;26.50;23.25;;;;;;;;5074111;28;45329;-72
2022/03/24 13:07:37;;;;;;;;;34.50;27.75;;;;;;;;5074144;28;46049;-71
2022/03/24 13:10:06;;;;;;;;;22.75;22.00;;;;;;;;5074413;28;45399;-71
2022/03/24 13:12:32;;;;;;;;;25.25;24.75;;;;;;;;5073915;27;45562;-70
2022/03/24 13:14:58;;;;;;;;;28.00;27.00;;;;;;;;5073613;27;45423;-71
2022/03/24 13:17:26;;;;;;;;;29.50;25.00;;;;;;;;5066222;28;47537;-70
2022/03/24 13:19:51;;;;;;;;;28.75;27.00;;;;;;;;5073701;27;45438;-72
2022/03/24 13:22:22;;;;;;;;;31.75;28.00;;;;;;;;5073568;27;45474;-71
2022/03/24 13:25:07;;;;;;;;;29.75;26.75;;;;;;;;5074170;27;45491;-71
2022/03/24 13:27:34;;;;;;;;;33.50;30.25;;;;;;;;5073223;27;45609;-70
2022/03/24 13:30:19;;;;;;;;;27.00;24.50;;;;;;;;5066263;28;45839;-71
2022/03/24 13:32:45;;;;;;;;;30.25;28.75;;;;;;;;5074916;28;45609;-71
2022/03/24 13:35:12;;;;;;;;;33.25;28.25;;;;;;;;5077178;27;45426;-69
2022/03/24 13:37:38;;;;;;;;;31.50;30.50;;;;;;;;5076919;27;45868;-71
2022/03/24 13:40:05;;;;;;;;;25.50;25.50;;;;;;;;5077598;27;45551;-71
2022/03/24 13:42:30;;;;;;;;;31.75;29.50;;;;;;;;5069722;28;45662;-71
2022/03/24 13:44:56;;;;;;;;;32.00;30.25;;;;;;;;5069396;28;45402;-71
2022/03/24 13:47:25;;;;;;;;;28.75;24.50;;;;;;;;5077018;28;45797;-72
2022/03/24 13:49:57;;;;;;;;;31.00;28.25;;;;;;;;5077009;27;45446;-71
2022/03/24 13:52:51;;;;;;;;;29.25;28.25;;;;;;;;5077110;27;45433;-72
2022/03/24 13:55:18;;;;;;;;;35.50;33.00;;;;;;;;5072071;28;46057;-71
2022/03/24 13:57:43;;;;;;;;;29.25;25.50;;;;;;;;5091998;27;48077;-71
2022/03/24 14:00:09;;;;;;;;;32.25;30.75;;;;;;;;5076651;27;45369;-70
2022/03/24 14:02:34;;;;;;;;;32.00;29.00;;;;;;;;5076761;28;45605;-71
2022/03/24 14:05:04;;;;;;;;;27.50;27.50;;;;;;;;5075449;28;45419;-71
2022/03/24 14:07:29;;;;;;;;;33.25;30.00;;;;;;;;5058660;28;46458;-70
2022/03/24 14:09:55;;;;;;;;;25.75;25.25;;;;;;;;5076871;28;45532;-70
2022/03/24 14:12:22;;;;;;;;;30.75;25.75;;;;;;;;5075009;28;45609;-70
2022/03/24 14:14:48;;;;;;;;;34.25;31.25;;;;;;;;5076620;27;45451;-71
2022/03/24 14:17:14;;;;;;;;;28.75;27.75;;;;;;;;5076141;27;46258;-70
2022/03/24 14:19:52;;;;;;;;;33.75;31.00;;;;;;;;5076544;28;45492;-69